createdAt,value
2022-12-23T00:00:20.444Z,32.92
2022-12-23T00:02:48.366Z,33.08
2022-12-23T00:05:16.119Z,32.50
2022-12-23T00:07:44.922Z,34.10
2022-12-23T00:10:14.876Z,33.22
2022-12-23T00:13:01.221Z,32.38
2022-12-23T00:15:29.212Z,32.80
2022-12-23T00:17:57.027Z,35.33
2022-12-23T00:20:24.799Z,33.55
2022-12-23T00:23:05.106Z,33.55
2022-12-23T00:25:40.839Z,32.00
2022-12-23T00:28:11.364Z,33.65
2022-12-23T00:30:58.827Z,34.45
2022-12-23T00:33:29.619Z,34.15
2022-12-23T00:35:57.770Z,34.95
2022-12-23T00:38:45.105Z,34.13
2022-12-23T00:41:37.214Z,34.38
2022-12-23T00:44:05.173Z,33.10
2022-12-23T00:46:33.199Z,35.17
2022-12-23T00:49:19.798Z,35.50
2022-12-23T00:51:47.894Z,34.67
2022-12-23T00:54:16.029Z,36.75
2022-12-23T00:56:43.645Z,34.85
2022-12-23T00:59:11.779Z,36.58
2022-12-23T01:01:58.490Z,34.65
2022-12-23T01:04:45.119Z,36.38
2022-12-23T01:07:12.894Z,36.17
2022-12-23T01:09:40.923Z,38.05
2022-12-23T01:12:09.003Z,38.90
2022-12-23T01:14:36.772Z,36.95
2022-12-23T01:17:07.035Z,36.78
2022-12-23T01:19:35.526Z,35.50
2022-12-23T01:22:03.444Z,36.92
2022-12-23T01:24:32.557Z,37.25
2022-12-23T01:27:00.798Z,36.97
2022-12-23T01:29:29.027Z,35.70
2022-12-23T01:31:57.107Z,34.88
2022-12-23T01:34:24.732Z,34.03
2022-12-23T01:36:52.275Z,34.28
2022-12-23T01:39:20.158Z,35.00
2022-12-23T01:42:06.051Z,34.38
2022-12-23T01:44:54.442Z,35.95
2022-12-23T01:47:26.829Z,32.42
2022-12-23T01:50:07.434Z,32.90
2022-12-23T01:52:43.483Z,33.88
2022-12-23T01:55:14.212Z,33.90
2022-12-23T01:57:43.422Z,34.67
2022-12-23T02:00:31.094Z,35.10
2022-12-23T02:03:18.027Z,33.70
2022-12-23T02:05:46.334Z,33.47
2022-12-23T02:08:37.013Z,33.67
2022-12-23T02:11:16.321Z,31.80
2022-12-23T02:14:35.653Z,33.85
2022-12-23T02:17:37.070Z,32.30
2022-12-23T02:20:43.901Z,33.35
2022-12-23T02:23:38.296Z,33.30
2022-12-23T02:26:30.799Z,34.88
2022-12-23T02:29:44.940Z,33.72
2022-12-23T02:32:23.937Z,33.90
2022-12-23T02:34:54.031Z,36.30
2022-12-23T02:37:33.072Z,36.85
2022-12-23T02:40:03.944Z,34.50
2022-12-23T02:42:35.460Z,33.85
2022-12-23T02:45:18.793Z,35.75
2022-12-23T02:48:14.429Z,36.45
2022-12-23T02:50:45.171Z,36.17
2022-12-23T02:53:21.444Z,37.40
2022-12-23T02:55:51.807Z,38.63
2022-12-23T02:58:24.940Z,44.28
2022-12-23T03:00:53.700Z,38.85
2022-12-23T03:03:22.362Z,42.20
2022-12-23T03:05:51.476Z,41.97
2022-12-23T03:08:35.076Z,43.72
2022-12-23T03:11:12.216Z,39.30
2022-12-23T03:13:57.590Z,39.92
2022-12-23T03:17:02.898Z,38.63
2022-12-23T03:19:42.247Z,45.42
2022-12-23T03:22:10.043Z,38.92
2022-12-23T03:24:53.653Z,41.35
2022-12-23T03:27:34.004Z,37.92
2022-12-23T03:30:05.227Z,37.40
2022-12-23T03:32:39.180Z,43.83
2022-12-23T03:35:10.401Z,40.20
2022-12-23T03:37:44.236Z,40.60
2022-12-23T03:40:22.680Z,39.08
2022-12-23T03:42:57.884Z,41.47
2022-12-23T03:45:39.764Z,42.08
2022-12-23T03:48:24.129Z,39.15
2022-12-23T03:50:56.838Z,42.50
2022-12-23T03:53:30.544Z,42.80
2022-12-23T03:56:10.553Z,40.20
2022-12-23T03:59:03.428Z,43.40
2022-12-23T04:01:34.092Z,39.60
2022-12-23T04:04:10.392Z,41.88
2022-12-23T04:06:58.299Z,40.90
2022-12-23T04:09:28.654Z,41.17
2022-12-23T04:11:58.261Z,44.03
2022-12-23T04:14:29.144Z,41.33
2022-12-23T04:16:59.360Z,41.83
2022-12-23T04:19:27.417Z,48.80
2022-12-23T04:21:57.795Z,40.58
2022-12-23T04:24:25.328Z,42.60
2022-12-23T04:26:52.860Z,46.45
2022-12-23T04:29:20.727Z,43.78
2022-12-23T04:31:48.526Z,44.33
2022-12-23T04:34:16.262Z,47.72
2022-12-23T04:36:44.120Z,43.35
2022-12-23T04:39:11.820Z,46.22
2022-12-23T04:41:39.484Z,46.10
2022-12-23T04:44:07.466Z,43.28
2022-12-23T04:46:35.035Z,42.38
2022-12-23T04:49:04.862Z,42.05
2022-12-23T04:51:33.034Z,51.20
2022-12-23T04:54:00.673Z,44.58
2022-12-23T04:56:28.308Z,47.65
2022-12-23T04:58:56.230Z,44.22
2022-12-23T05:01:23.972Z,46.45
2022-12-23T05:03:51.517Z,46.80
2022-12-23T05:06:19.480Z,47.70
2022-12-23T05:08:47.142Z,43.87
2022-12-23T05:11:14.667Z,44.25
2022-12-23T05:13:42.583Z,43.15
2022-12-23T05:16:10.188Z,46.33
2022-12-23T05:18:38.301Z,44.65
2022-12-23T05:21:06.185Z,44.08
2022-12-23T05:23:33.856Z,43.60
2022-12-23T05:26:01.591Z,43.67
2022-12-23T05:28:29.726Z,46.45
2022-12-23T05:31:06.663Z,43.97
2022-12-23T05:33:35.528Z,43.78
2022-12-23T05:36:03.954Z,46.88
2022-12-23T05:38:31.592Z,50.25
2022-12-23T05:40:59.852Z,48.60
2022-12-23T05:43:27.441Z,47.42
2022-12-23T05:45:55.200Z,44.10
2022-12-23T05:48:23.185Z,44.53
2022-12-23T05:50:52.452Z,45.70
2022-12-23T05:53:20.923Z,53.95
2022-12-23T05:55:48.923Z,45.88
2022-12-23T05:58:17.207Z,46.30
2022-12-23T06:00:44.919Z,49.55
2022-12-23T06:03:12.993Z,52.90
2022-12-23T06:05:43.459Z,45.10
2022-12-23T06:08:11.209Z,51.83
2022-12-23T06:10:39.764Z,44.72
2022-12-23T06:13:07.625Z,47.40
2022-12-23T06:15:35.189Z,45.22
2022-12-23T06:18:03.073Z,45.00
2022-12-23T06:20:30.793Z,47.22
2022-12-23T06:22:58.398Z,47.05
2022-12-23T06:25:26.317Z,52.62
2022-12-23T06:27:53.894Z,48.10
2022-12-23T06:30:22.399Z,50.50
2022-12-23T06:32:50.392Z,50.72
2022-12-23T06:35:18.061Z,50.28
2022-12-23T06:37:46.007Z,48.78
2022-12-23T06:40:15.061Z,50.63
2022-12-23T06:42:42.608Z,50.25
2022-12-23T06:45:10.675Z,52.40
2022-12-23T06:47:38.525Z,47.03
2022-12-23T06:50:09.022Z,47.08
2022-12-23T06:52:37.696Z,49.33
2022-12-23T06:55:06.041Z,49.67
2022-12-23T06:57:33.667Z,50.47
2022-12-23T07:00:05.361Z,47.03
2022-12-23T07:02:33.765Z,51.45
2022-12-23T07:05:01.483Z,50.10
2022-12-23T07:07:29.178Z,54.30
2022-12-23T07:09:58.689Z,49.78
2022-12-23T07:12:26.348Z,47.62
2022-12-23T07:14:53.899Z,52.13
2022-12-23T07:17:21.745Z,53.50
2022-12-23T07:19:50.352Z,45.45
2022-12-23T07:22:17.927Z,51.92
2022-12-23T07:24:45.850Z,50.05
2022-12-23T07:27:13.613Z,54.70
2022-12-23T07:29:41.263Z,46.55
2022-12-23T07:32:09.422Z,47.05
2022-12-23T07:34:37.092Z,47.13
2022-12-23T07:37:04.750Z,50.70
2022-12-23T07:39:32.771Z,47.72
2022-12-23T07:42:24.942Z,58.45
2022-12-23T07:44:48.282Z,49.22
2022-12-23T07:47:15.854Z,53.42
2022-12-23T07:49:43.533Z,48.38
2022-12-23T07:52:11.367Z,48.60
2022-12-23T07:54:38.962Z,47.35
2022-12-23T07:57:06.592Z,56.78
2022-12-23T07:59:34.444Z,46.20
2022-12-23T08:02:02.393Z,53.90
2022-12-23T08:04:30.673Z,46.72
2022-12-23T08:06:58.187Z,50.65
2022-12-23T08:09:25.712Z,52.80
2022-12-23T08:11:53.577Z,52.10
2022-12-23T08:14:21.093Z,55.10
2022-12-23T08:16:48.796Z,55.58
2022-12-23T08:19:16.865Z,53.75
2022-12-23T08:21:44.659Z,52.25
2022-12-23T08:24:12.526Z,52.13
2022-12-23T08:26:40.396Z,47.70
2022-12-23T08:29:07.988Z,46.95
2022-12-23T08:31:35.665Z,48.25
2022-12-23T08:34:04.078Z,47.50
2022-12-23T08:36:33.867Z,45.22
2022-12-23T08:39:05.143Z,52.92
2022-12-23T08:41:37.599Z,45.65
2022-12-23T08:44:05.331Z,41.75
2022-12-23T08:46:34.233Z,41.97
2022-12-23T08:49:01.962Z,49.25
2022-12-23T08:51:29.621Z,48.42
2022-12-23T08:54:00.800Z,45.25
2022-12-23T08:56:32.463Z,53.00
2022-12-23T08:59:01.105Z,50.33
2022-12-23T09:01:32.076Z,50.45
2022-12-23T09:06:40.842Z,40.30
2022-12-23T09:09:10.701Z,43.75
2022-12-23T09:11:38.687Z,51.53
2022-12-23T09:14:08.609Z,48.80
2022-12-23T09:16:37.345Z,43.63
2022-12-23T09:19:05.056Z,45.88
2022-12-23T09:21:32.676Z,47.00
2022-12-23T09:24:00.861Z,46.28
2022-12-23T09:26:31.611Z,51.50
2022-12-23T09:28:59.962Z,47.00
2022-12-23T09:31:34.352Z,48.03
2022-12-23T09:34:04.436Z,46.55
2022-12-23T09:36:32.388Z,45.17
2022-12-23T09:38:59.951Z,53.92
2022-12-23T09:41:43.816Z,51.40
2022-12-23T09:44:47.472Z,51.30
2022-12-23T09:47:19.860Z,45.75
2022-12-23T09:50:24.069Z,51.17
2022-12-23T09:53:04.114Z,47.17
2022-12-23T09:56:10.975Z,49.28
2022-12-23T09:58:43.288Z,44.55
2022-12-23T10:01:42.960Z,47.58
2022-12-23T10:04:58.343Z,38.55
2022-12-23T10:07:39.385Z,46.08
2022-12-23T10:10:32.707Z,45.88
2022-12-23T10:13:06.004Z,50.38
2022-12-23T10:15:41.424Z,43.00
2022-12-23T10:18:20.201Z,42.17
2022-12-23T10:20:55.993Z,41.50
2022-12-23T10:23:37.842Z,45.80
2022-12-23T10:26:24.378Z,46.88
2022-12-23T10:29:08.065Z,43.65
2022-12-23T10:32:04.747Z,47.72
2022-12-23T10:35:13.853Z,46.17
2022-12-23T10:38:11.138Z,45.58
2022-12-23T10:40:54.606Z,46.30
2022-12-23T10:43:35.720Z,45.88
2022-12-23T10:46:31.050Z,53.27
2022-12-23T10:49:17.218Z,49.20
2022-12-23T10:51:54.950Z,49.25
2022-12-23T10:54:44.197Z,42.38
2022-12-23T10:57:13.617Z,39.85
2022-12-23T10:59:43.984Z,47.90
2022-12-23T11:02:11.642Z,45.95
2022-12-23T11:04:47.788Z,43.75
2022-12-23T11:10:33.103Z,42.30
2022-12-23T11:13:01.855Z,42.55
2022-12-23T11:15:40.672Z,40.42
2022-12-23T11:18:12.510Z,44.70
2022-12-23T11:20:43.220Z,39.95
2022-12-23T11:23:27.137Z,47.25
2022-12-23T11:26:22.631Z,42.78
2022-12-23T11:28:53.339Z,45.80
2022-12-23T11:31:32.583Z,46.50
2022-12-23T11:34:16.418Z,40.35
2022-12-23T11:36:54.708Z,41.37
2022-12-23T11:39:33.887Z,40.05
2022-12-23T11:42:11.884Z,47.92
2022-12-23T11:44:43.347Z,40.05
2022-12-23T11:47:22.952Z,40.30
2022-12-23T11:49:58.955Z,40.67
2022-12-23T11:52:29.411Z,40.25
2022-12-23T11:55:02.546Z,42.38
2022-12-23T11:57:49.036Z,48.28
2022-12-23T12:00:55.390Z,40.63
2022-12-23T12:03:28.881Z,46.37
2022-12-23T12:06:00.977Z,38.50
2022-12-23T12:08:33.679Z,46.45
2022-12-23T12:11:18.395Z,39.83
2022-12-23T12:13:50.356Z,47.13
2022-12-23T12:16:21.414Z,42.00
2022-12-23T12:21:28.723Z,38.10
2022-12-23T12:24:19.240Z,39.13
2022-12-23T12:26:52.487Z,49.92
2022-12-23T12:29:37.707Z,47.97
2022-12-23T12:32:19.367Z,46.30
2022-12-23T12:35:02.078Z,47.97
2022-12-23T12:37:47.448Z,48.40
2022-12-23T12:40:58.112Z,47.22
2022-12-23T12:43:34.499Z,41.72
2022-12-23T12:46:22.147Z,48.78
2022-12-23T12:49:26.983Z,47.67
2022-12-23T12:51:57.946Z,51.05
2022-12-23T12:54:40.475Z,48.30
2022-12-23T12:57:15.096Z,47.95
2022-12-23T12:59:44.699Z,48.85
2022-12-23T13:02:27.818Z,46.97
2022-12-23T13:05:01.531Z,48.55
2022-12-23T13:07:32.302Z,47.67
2022-12-23T13:10:37.746Z,48.72
2022-12-23T13:13:36.565Z,46.92
2022-12-23T13:16:10.732Z,46.35
2022-12-23T13:19:00.443Z,49.60
2022-12-23T13:22:10.529Z,47.22
2022-12-23T13:25:05.997Z,44.17
2022-12-23T13:27:47.220Z,50.45
2022-12-23T13:30:19.231Z,49.85
2022-12-23T13:33:09.878Z,51.03
2022-12-23T13:36:05.724Z,48.80
2022-12-23T13:38:56.175Z,51.20
2022-12-23T13:41:35.464Z,52.53
2022-12-23T13:44:07.909Z,52.45
2022-12-23T13:47:09.839Z,52.80
2022-12-23T13:52:23.242Z,44.55
2022-12-23T13:55:05.897Z,43.85
2022-12-23T13:58:00.000Z,48.72
2022-12-23T14:00:31.559Z,44.22
2022-12-23T14:05:35.414Z,40.60
2022-12-23T14:08:20.957Z,49.55
2022-12-23T14:11:02.613Z,48.78
2022-12-23T14:13:37.977Z,47.75
2022-12-23T14:16:22.925Z,49.15
2022-12-23T14:19:15.834Z,42.25
2022-12-23T14:22:21.361Z,52.25
2022-12-23T14:25:18.627Z,50.72
2022-12-23T14:28:37.650Z,48.90
2022-12-23T14:31:05.995Z,40.50
2022-12-23T14:33:37.401Z,48.78
2022-12-23T14:38:42.188Z,41.53
2022-12-23T14:41:37.602Z,53.03
2022-12-23T14:44:41.338Z,51.03
2022-12-23T14:47:33.230Z,47.47
2022-12-23T14:50:33.196Z,51.80
2022-12-23T14:53:20.780Z,43.33
2022-12-23T14:55:51.131Z,52.03
2022-12-23T14:58:29.134Z,53.95
2022-12-23T15:01:09.090Z,50.75
2022-12-23T15:03:48.170Z,53.67
2022-12-23T15:06:20.683Z,51.72
2022-12-23T15:08:52.553Z,53.33
2022-12-23T15:11:31.065Z,51.95
2022-12-23T15:14:03.388Z,53.60
2022-12-23T15:16:39.751Z,55.42
2022-12-23T15:19:23.819Z,53.65
2022-12-23T15:22:15.299Z,55.70
2022-12-23T15:24:47.750Z,54.90
2022-12-23T15:27:27.184Z,54.88
2022-12-23T15:29:56.347Z,56.00
2022-12-23T15:32:25.501Z,55.63
2022-12-23T15:35:02.478Z,57.53
2022-12-23T15:37:31.647Z,60.22
2022-12-23T15:40:11.466Z,60.10
2022-12-23T15:42:47.463Z,56.85
2022-12-23T15:45:38.151Z,56.72
2022-12-23T15:48:22.634Z,54.97
2022-12-23T15:50:53.427Z,54.58
2022-12-23T15:53:21.364Z,55.75
2022-12-23T15:55:50.102Z,54.47
2022-12-23T15:58:23.582Z,53.20
2022-12-23T16:00:58.030Z,53.15
2022-12-23T16:03:37.451Z,52.60
2022-12-23T16:06:17.168Z,51.30
2022-12-23T16:08:47.190Z,53.33
2022-12-23T16:11:17.969Z,53.22
2022-12-23T16:14:01.378Z,52.95
2022-12-23T16:16:42.331Z,51.97
2022-12-23T16:19:41.319Z,51.60
2022-12-23T16:22:24.800Z,55.17
2022-12-23T16:25:12.976Z,53.95
2022-12-23T16:28:06.632Z,51.75
2022-12-23T16:30:41.845Z,53.33
2022-12-23T16:33:37.024Z,55.03
2022-12-23T16:36:20.571Z,54.80
2022-12-23T16:38:49.835Z,50.15
2022-12-23T16:41:19.313Z,49.20
2022-12-23T16:43:52.056Z,54.83
2022-12-23T16:46:22.582Z,133.85
2022-12-23T16:48:53.336Z,84.05
2022-12-23T16:51:23.617Z,52.80
2022-12-23T16:53:55.094Z,52.62
2022-12-23T16:56:35.742Z,51.50
2022-12-23T16:59:04.427Z,50.70
2022-12-23T17:01:35.039Z,50.50
2022-12-23T17:06:30.956Z,60.63
2022-12-23T17:08:58.827Z,54.20
2022-12-23T17:11:56.375Z,54.88
2022-12-23T17:14:25.516Z,47.95
2022-12-23T17:16:53.283Z,51.28
2022-12-23T17:19:28.052Z,51.20
2022-12-23T17:22:02.999Z,55.60
2022-12-23T17:24:30.702Z,55.67
2022-12-23T17:26:58.594Z,54.53
2022-12-23T17:29:26.625Z,52.38
2022-12-23T17:31:54.627Z,49.30
2022-12-23T17:34:24.529Z,51.50
2022-12-23T17:36:52.692Z,51.67
2022-12-23T17:39:21.712Z,57.17
2022-12-23T17:41:50.117Z,56.65
2022-12-23T17:44:19.131Z,56.20
2022-12-23T17:46:47.631Z,56.28
2022-12-23T17:49:15.538Z,53.42
2022-12-23T17:51:43.425Z,51.90
2022-12-23T17:54:25.021Z,48.33
2022-12-23T17:56:53.281Z,49.03
2022-12-23T17:59:21.693Z,51.03
2022-12-23T18:01:50.235Z,55.05
2022-12-23T18:04:18.320Z,48.38
2022-12-23T18:06:45.845Z,47.65
2022-12-23T18:09:13.403Z,46.08
2022-12-23T18:11:44.836Z,48.72
2022-12-23T18:14:28.026Z,48.45
2022-12-23T18:16:56.239Z,45.75
2022-12-23T18:19:24.158Z,48.35
2022-12-23T18:21:52.450Z,46.10
2022-12-23T18:24:20.310Z,47.67
2022-12-23T18:26:47.895Z,47.38
2022-12-23T18:29:16.523Z,44.50
2022-12-23T18:31:52.174Z,46.60
2022-12-23T18:34:20.835Z,47.45
2022-12-23T18:36:49.006Z,47.90
2022-12-23T18:39:16.932Z,46.17
2022-12-23T18:41:44.884Z,47.33
2022-12-23T18:44:21.036Z,47.90
2022-12-23T18:46:49.430Z,48.85
2022-12-23T18:49:17.714Z,52.10
2022-12-23T18:51:46.091Z,51.90
2022-12-23T18:54:17.261Z,49.17
2022-12-23T18:56:45.405Z,46.92
2022-12-23T18:59:22.513Z,46.78
2022-12-23T19:01:56.239Z,53.75
2022-12-23T19:04:23.974Z,48.20
2022-12-23T19:06:51.765Z,49.67
2022-12-23T19:09:22.459Z,56.63
2022-12-23T19:11:51.550Z,51.33
2022-12-23T19:14:19.481Z,58.58
2022-12-23T19:16:51.608Z,49.10
2022-12-23T19:19:21.194Z,51.70
2022-12-23T19:21:48.727Z,44.05
2022-12-23T19:24:16.400Z,47.00
2022-12-23T19:26:44.272Z,46.88
2022-12-23T19:29:12.027Z,49.45
2022-12-23T19:31:40.560Z,42.47
2022-12-23T19:34:14.614Z,42.40
2022-12-23T19:36:43.657Z,41.33
2022-12-23T19:41:46.251Z,42.83
2022-12-23T19:44:14.732Z,40.88
2022-12-23T19:46:42.380Z,41.28
2022-12-23T19:49:15.726Z,42.58
2022-12-23T19:51:47.716Z,43.15
2022-12-23T19:54:15.659Z,44.40
2022-12-23T19:56:43.472Z,41.55
2022-12-23T19:59:12.710Z,39.95
2022-12-23T20:01:40.380Z,41.42
2022-12-23T20:04:09.500Z,40.80
2022-12-23T20:06:38.431Z,42.10
2022-12-23T20:09:07.546Z,40.78
2022-12-23T20:11:39.240Z,42.20
2022-12-23T20:14:07.941Z,42.33
2022-12-23T20:16:37.269Z,43.15
2022-12-23T20:19:05.323Z,41.92
2022-12-23T20:21:34.410Z,44.80
2022-12-23T20:24:02.268Z,42.75
2022-12-23T20:26:30.809Z,44.83
2022-12-23T20:28:59.293Z,46.33
2022-12-23T20:31:29.933Z,46.75
2022-12-23T20:33:58.531Z,50.53
2022-12-23T20:36:29.309Z,50.00
2022-12-23T20:38:57.515Z,48.85
2022-12-23T20:41:28.330Z,47.45
2022-12-23T20:44:32.295Z,49.05
2022-12-23T20:46:44.441Z,48.87
2022-12-23T20:49:12.249Z,48.92
2022-12-23T20:51:39.941Z,48.95
2022-12-23T20:54:07.913Z,50.40
2022-12-23T20:56:35.489Z,51.95
2022-12-23T20:59:04.008Z,52.80
2022-12-23T21:01:36.255Z,54.80
2022-12-23T21:04:06.914Z,53.42
2022-12-23T21:06:35.592Z,58.72
2022-12-23T21:09:06.853Z,54.92
2022-12-23T21:11:37.512Z,54.45
2022-12-23T21:14:07.459Z,53.83
2022-12-23T21:16:36.703Z,54.47
2022-12-23T21:19:06.409Z,51.15
2022-12-23T21:21:34.870Z,50.67
2022-12-23T21:24:04.765Z,46.90
2022-12-23T21:26:34.177Z,44.55
2022-12-23T21:29:04.372Z,42.00
2022-12-23T21:31:34.018Z,43.60
2022-12-23T21:34:02.502Z,45.30
2022-12-23T21:36:33.887Z,42.60
2022-12-23T21:39:02.581Z,39.58
2022-12-23T21:41:34.954Z,39.35
2022-12-23T21:44:03.803Z,41.30
2022-12-23T21:46:31.776Z,42.53
2022-12-23T21:48:59.969Z,42.83
2022-12-23T21:51:40.093Z,43.95
2022-12-23T21:54:10.404Z,45.28
2022-12-23T21:56:39.451Z,45.35
2022-12-23T21:59:12.184Z,46.67
2022-12-23T22:01:41.248Z,49.30
2022-12-23T22:04:09.256Z,51.75
2022-12-23T22:06:40.681Z,49.65
2022-12-23T22:09:08.917Z,51.17
2022-12-23T22:11:37.969Z,49.92
2022-12-23T22:14:07.888Z,47.30
2022-12-23T22:16:36.481Z,49.63
2022-12-23T22:19:06.857Z,48.28
2022-12-23T22:21:35.819Z,48.17
2022-12-23T22:24:03.616Z,48.30
2022-12-23T22:26:32.852Z,49.83
2022-12-23T22:29:02.551Z,44.42
2022-12-23T22:31:35.627Z,44.50
2022-12-23T22:34:04.637Z,44.60
2022-12-23T22:36:32.985Z,43.97
2022-12-23T22:39:02.059Z,44.10
2022-12-23T22:41:30.584Z,47.90
2022-12-23T22:43:59.257Z,45.25
2022-12-23T22:46:27.459Z,47.33
2022-12-23T22:48:56.391Z,44.67
2022-12-23T22:51:29.918Z,46.25
2022-12-23T22:53:58.042Z,44.65
2022-12-23T22:56:25.917Z,47.38
2022-12-23T22:58:53.997Z,45.65
2022-12-23T23:01:22.483Z,48.35
2022-12-23T23:03:56.924Z,46.28
2022-12-23T23:06:26.890Z,46.60
2022-12-23T23:08:55.446Z,47.72
2022-12-23T23:11:24.132Z,46.63
2022-12-23T23:13:52.657Z,48.10
2022-12-23T23:16:20.715Z,47.47
2022-12-23T23:18:49.837Z,47.88
2022-12-23T23:21:18.002Z,47.78
2022-12-23T23:23:45.774Z,47.33
2022-12-23T23:26:13.743Z,47.50
2022-12-23T23:28:42.459Z,48.22
2022-12-23T23:31:40.421Z,49.45
2022-12-23T23:33:58.336Z,43.95
2022-12-23T23:36:25.983Z,46.42
2022-12-23T23:38:53.581Z,47.08
2022-12-23T23:41:23.505Z,46.95
2022-12-23T23:43:52.134Z,49.20
2022-12-23T23:46:19.797Z,47.75
2022-12-23T23:48:47.998Z,47.30
2022-12-23T23:51:15.605Z,46.17
2022-12-23T23:53:43.463Z,47.25
2022-12-23T23:56:11.329Z,51.67
2022-12-23T23:58:39.028Z,50.67
